createdAt,value
2022-11-19T00:02:01.000Z,4.20
2022-11-19T00:04:30.281Z,1.33
2022-11-19T00:06:58.529Z,2.72
2022-11-19T00:09:26.316Z,2.72
2022-11-19T00:12:11.499Z,0.75
2022-11-19T00:14:39.601Z,1.27
2022-11-19T00:17:07.520Z,1.67
2022-11-19T00:19:36.939Z,2.42
2022-11-19T00:22:04.803Z,0.80
2022-11-19T00:24:32.565Z,0.75
2022-11-19T00:27:00.485Z,1.13
2022-11-19T00:29:28.403Z,0.93
2022-11-19T00:31:56.365Z,2.15
2022-11-19T00:34:24.232Z,1.08
2022-11-19T00:36:53.518Z,2.95
2022-11-19T00:39:22.175Z,3.15
2022-11-19T00:41:50.224Z,3.33
2022-11-19T00:44:18.045Z,0.93
2022-11-19T00:46:45.780Z,2.45
2022-11-19T00:49:13.533Z,1.27
2022-11-19T00:51:41.337Z,1.25
2022-11-19T00:54:10.627Z,1.50
2022-11-19T00:56:38.494Z,2.53
2022-11-19T00:59:06.417Z,0.52
2022-11-19T01:01:34.551Z,1.65
2022-11-19T01:04:02.404Z,0.50
2022-11-19T01:06:30.164Z,1.67
2022-11-19T01:08:58.219Z,0.75
2022-11-19T01:11:29.161Z,0.68
2022-11-19T01:13:57.037Z,0.40
2022-11-19T01:16:25.970Z,0.68
2022-11-19T01:18:53.838Z,0.63
2022-11-19T01:21:22.830Z,0.60
2022-11-19T01:23:50.856Z,0.55
2022-11-19T01:26:18.977Z,0.75
2022-11-19T01:28:48.430Z,2.60
2022-11-19T01:31:17.315Z,9.85
2022-11-19T01:33:45.590Z,0.63
2022-11-19T01:36:16.068Z,0.77
2022-11-19T01:38:44.187Z,1.10
2022-11-19T01:41:12.054Z,1.10
2022-11-19T01:43:41.148Z,1.23
2022-11-19T01:46:10.856Z,1.30
2022-11-19T01:48:40.247Z,1.20
2022-11-19T01:51:10.484Z,0.90
2022-11-19T01:53:38.293Z,1.27
2022-11-19T01:56:07.976Z,1.13
2022-11-19T01:58:37.384Z,2.67
2022-11-19T02:01:05.775Z,0.88
2022-11-19T02:03:35.284Z,2.10
2022-11-19T02:06:03.983Z,0.52
2022-11-19T02:08:39.755Z,1.15
2022-11-19T02:11:28.269Z,0.73
2022-11-19T02:14:00.803Z,1.02
2022-11-19T02:16:33.570Z,0.98
2022-11-19T02:19:04.665Z,2.10
2022-11-19T02:21:33.760Z,1.40
2022-11-19T02:24:05.153Z,5.90
2022-11-19T02:26:54.634Z,2.33
2022-11-19T02:29:31.451Z,1.50
2022-11-19T02:32:02.086Z,1.17
2022-11-19T02:34:31.773Z,1.50
2022-11-19T02:37:02.214Z,0.93
2022-11-19T02:39:36.737Z,0.57
2022-11-19T02:42:06.657Z,0.70
2022-11-19T02:44:54.381Z,2.08
2022-11-19T02:47:25.049Z,1.92
2022-11-19T02:49:55.691Z,0.82
2022-11-19T02:52:23.805Z,1.73
2022-11-19T02:54:51.615Z,0.68
2022-11-19T02:57:19.387Z,3.80
2022-11-19T03:00:07.221Z,3.55
2022-11-19T03:02:54.951Z,7.93
2022-11-19T03:05:24.806Z,4.75
2022-11-19T03:07:52.627Z,1.42
2022-11-19T03:10:21.711Z,1.90
2022-11-19T03:12:50.983Z,0.20
2022-11-19T03:15:41.873Z,1.38
2022-11-19T03:18:13.824Z,1.50
2022-11-19T03:20:42.828Z,1.23
2022-11-19T03:23:12.654Z,1.63
2022-11-19T03:25:42.703Z,1.10
2022-11-19T03:28:12.582Z,0.73
2022-11-19T03:30:42.018Z,0.50
2022-11-19T03:33:11.515Z,2.13
2022-11-19T03:35:43.125Z,0.40
2022-11-19T03:38:12.630Z,1.35
2022-11-19T03:40:40.894Z,1.13
2022-11-19T03:43:10.735Z,1.40
2022-11-19T03:45:40.718Z,0.68
2022-11-19T03:48:08.799Z,2.08
2022-11-19T03:50:39.223Z,1.10
2022-11-19T03:53:08.523Z,1.92
2022-11-19T03:55:37.923Z,1.50
2022-11-19T03:58:06.361Z,0.55
2022-11-19T04:00:34.935Z,0.63
2022-11-19T04:03:02.701Z,4.43
2022-11-19T04:05:30.461Z,0.30
2022-11-19T04:07:58.547Z,0.55
2022-11-19T04:10:27.831Z,9.02
2022-11-19T04:12:55.586Z,0.75
2022-11-19T04:15:23.408Z,1.38
2022-11-19T04:17:51.084Z,0.80
2022-11-19T04:20:18.847Z,2.80
2022-11-19T04:22:46.591Z,1.40
2022-11-19T04:25:14.457Z,3.60
2022-11-19T04:27:45.904Z,0.65
2022-11-19T04:30:14.386Z,4.30
2022-11-19T04:32:42.410Z,3.03
2022-11-19T04:35:10.530Z,0.60
2022-11-19T04:37:38.436Z,0.82
2022-11-19T04:40:06.812Z,0.73
2022-11-19T04:42:34.719Z,4.93
2022-11-19T04:45:03.829Z,1.05
2022-11-19T04:47:31.654Z,1.35
2022-11-19T04:49:59.500Z,0.85
2022-11-19T04:52:27.376Z,2.30
2022-11-19T04:54:55.242Z,1.48
2022-11-19T04:57:23.144Z,1.27
2022-11-19T04:59:51.067Z,0.73
2022-11-19T05:02:20.167Z,0.68
2022-11-19T05:04:48.022Z,1.40
2022-11-19T05:07:15.824Z,0.70
2022-11-19T05:09:43.647Z,0.90
2022-11-19T05:12:11.519Z,1.98
2022-11-19T05:14:39.604Z,2.42
2022-11-19T05:17:07.509Z,1.08
2022-11-19T05:19:36.808Z,2.60
2022-11-19T05:22:04.677Z,1.05
2022-11-19T05:24:32.535Z,1.52
2022-11-19T05:27:00.506Z,1.80
2022-11-19T05:29:28.269Z,1.70
2022-11-19T05:31:56.134Z,2.17
2022-11-19T05:34:24.002Z,1.73
2022-11-19T05:36:53.249Z,2.22
2022-11-19T05:39:22.336Z,1.33
2022-11-19T05:41:50.666Z,0.52
2022-11-19T05:44:19.039Z,3.83
2022-11-19T05:46:46.613Z,1.20
2022-11-19T05:49:14.279Z,3.05
2022-11-19T05:51:42.054Z,0.70
2022-11-19T05:54:11.901Z,0.90
2022-11-19T05:56:39.638Z,1.70
2022-11-19T05:59:07.516Z,2.22
2022-11-19T06:01:35.329Z,2.55
2022-11-19T06:04:03.222Z,0.52
2022-11-19T06:06:31.003Z,0.77
2022-11-19T06:08:58.820Z,1.75
2022-11-19T06:11:45.573Z,0.90
2022-11-19T06:14:13.510Z,1.40
2022-11-19T06:16:41.727Z,0.47
2022-11-19T06:19:09.632Z,1.15
2022-11-19T06:21:37.475Z,4.15
2022-11-19T06:24:05.458Z,0.60
2022-11-19T06:26:34.862Z,1.23
2022-11-19T06:29:02.941Z,1.50
2022-11-19T06:31:30.907Z,0.95
2022-11-19T06:33:58.722Z,3.03
2022-11-19T06:36:27.721Z,0.90
2022-11-19T06:38:55.676Z,1.45
2022-11-19T06:41:23.598Z,1.27
2022-11-19T06:43:52.849Z,1.42
2022-11-19T06:46:20.612Z,3.45
2022-11-19T06:48:48.678Z,1.27
2022-11-19T06:51:16.471Z,1.20
2022-11-19T06:53:44.407Z,1.02
2022-11-19T06:56:12.273Z,0.85
2022-11-19T06:58:40.042Z,1.90
2022-11-19T07:01:09.177Z,1.00
2022-11-19T07:03:36.886Z,0.77
2022-11-19T07:06:05.569Z,1.80
2022-11-19T07:08:34.969Z,0.57
2022-11-19T07:11:23.119Z,0.93
2022-11-19T07:14:00.258Z,0.57
2022-11-19T07:16:30.727Z,0.90
2022-11-19T07:18:59.711Z,0.77
2022-11-19T07:21:27.821Z,0.47
2022-11-19T07:23:55.755Z,0.55
2022-11-19T07:26:23.675Z,1.40
2022-11-19T07:28:51.589Z,1.75
2022-11-19T07:31:19.611Z,1.17
2022-11-19T07:33:48.759Z,1.10
2022-11-19T07:36:18.585Z,1.50
2022-11-19T07:38:47.089Z,0.93
2022-11-19T07:41:28.680Z,0.60
2022-11-19T07:43:56.598Z,1.23
2022-11-19T07:46:24.512Z,1.27
2022-11-19T07:48:55.506Z,1.75
2022-11-19T07:51:24.091Z,1.08
2022-11-19T07:53:52.057Z,1.20
2022-11-19T07:56:20.124Z,0.43
2022-11-19T07:58:47.940Z,0.60
2022-11-19T08:01:18.533Z,0.63
2022-11-19T08:03:50.761Z,2.00
2022-11-19T08:06:23.241Z,2.22
2022-11-19T08:08:51.173Z,3.53
2022-11-19T08:11:20.726Z,3.05
2022-11-19T08:13:48.557Z,3.67
2022-11-19T08:16:37.689Z,2.60
2022-11-19T08:19:07.175Z,2.88
2022-11-19T08:21:36.763Z,3.35
2022-11-19T08:24:04.887Z,3.25
2022-11-19T08:26:32.743Z,5.25
2022-11-19T08:29:00.717Z,5.03
2022-11-19T08:31:28.670Z,4.63
2022-11-19T08:33:56.480Z,3.53
2022-11-19T08:36:24.316Z,4.00
2022-11-19T08:38:53.615Z,5.43
2022-11-19T08:41:53.579Z,4.30
2022-11-19T08:44:21.970Z,8.57
2022-11-19T08:46:50.688Z,9.70
2022-11-19T08:49:18.602Z,7.50
2022-11-19T08:51:46.476Z,11.02
2022-11-19T08:54:15.724Z,6.93
2022-11-19T08:56:43.588Z,12.18
2022-11-19T08:59:11.380Z,10.25
2022-11-19T09:01:39.216Z,5.55
2022-11-19T09:04:07.033Z,8.57
2022-11-19T09:06:35.391Z,8.60
2022-11-19T09:09:03.374Z,11.13
2022-11-19T09:11:32.777Z,13.50
2022-11-19T09:14:00.993Z,8.68
2022-11-19T09:16:28.811Z,10.05
2022-11-19T09:18:56.628Z,8.93
2022-11-19T09:21:24.441Z,8.93
2022-11-19T09:23:52.107Z,6.70
2022-11-19T09:26:20.172Z,10.55
2022-11-19T09:28:49.469Z,10.27
2022-11-19T09:31:18.410Z,8.50
2022-11-19T09:33:47.907Z,9.07
2022-11-19T09:36:15.973Z,9.32
2022-11-19T09:38:43.942Z,7.35
2022-11-19T09:41:32.858Z,6.95
2022-11-19T09:44:08.301Z,5.38
2022-11-19T09:46:40.161Z,5.65
2022-11-19T09:49:11.763Z,7.13
2022-11-19T09:51:42.599Z,8.43
2022-11-19T09:54:15.838Z,8.82
2022-11-19T09:56:44.819Z,6.53
2022-11-19T09:59:17.659Z,9.75
2022-11-19T10:01:45.526Z,6.05
2022-11-19T10:04:13.547Z,4.28
2022-11-19T10:06:47.237Z,3.80
2022-11-19T10:09:30.020Z,3.58
2022-11-19T10:12:04.380Z,2.45
2022-11-19T10:14:44.737Z,2.38
2022-11-19T10:17:18.184Z,3.38
2022-11-19T10:19:54.243Z,6.25
2022-11-19T10:22:23.476Z,4.80
2022-11-19T10:24:56.259Z,3.85
2022-11-19T10:27:27.353Z,1.38
2022-11-19T10:29:59.032Z,0.82
2022-11-19T10:32:30.769Z,2.97
2022-11-19T10:35:00.170Z,3.58
2022-11-19T10:37:30.799Z,4.28
2022-11-19T10:40:00.664Z,3.42
2022-11-19T10:42:30.466Z,3.33
2022-11-19T10:45:02.077Z,3.72
2022-11-19T10:47:31.573Z,2.50
2022-11-19T10:49:59.287Z,4.43
2022-11-19T10:52:29.975Z,3.17
2022-11-19T10:54:59.108Z,3.55
2022-11-19T10:57:27.137Z,6.25
2022-11-19T10:59:55.615Z,7.25
2022-11-19T11:02:28.333Z,7.03
2022-11-19T11:05:01.129Z,2.80
2022-11-19T11:07:49.713Z,4.18
2022-11-19T11:10:44.246Z,5.63
2022-11-19T11:13:40.096Z,5.03
2022-11-19T11:16:09.130Z,7.20
2022-11-19T11:18:40.706Z,7.90
2022-11-19T11:21:12.085Z,5.45
2022-11-19T11:23:48.438Z,3.70
2022-11-19T11:26:19.739Z,5.13
2022-11-19T11:28:55.155Z,4.95
2022-11-19T11:31:29.647Z,4.43
2022-11-19T11:33:59.211Z,4.18
2022-11-19T11:36:27.949Z,2.58
2022-11-19T11:38:56.838Z,3.90
2022-11-19T11:44:18.995Z,4.68
2022-11-19T11:46:48.128Z,3.78
2022-11-19T11:49:26.713Z,3.67
2022-11-19T11:52:12.519Z,5.07
2022-11-19T11:54:54.530Z,1.83
2022-11-19T11:57:23.302Z,3.05
2022-11-19T11:59:51.383Z,4.45
2022-11-19T12:02:20.761Z,2.70
2022-11-19T12:04:50.444Z,5.00
2022-11-19T12:07:22.322Z,4.30
2022-11-19T12:09:53.332Z,3.97
2022-11-19T12:12:25.498Z,2.47
2022-11-19T12:14:58.752Z,3.67
2022-11-19T12:17:31.932Z,2.42
2022-11-19T12:20:22.944Z,6.35
2022-11-19T12:22:56.980Z,2.75
2022-11-19T12:25:28.250Z,4.50
2022-11-19T12:28:04.973Z,5.88
2022-11-19T12:30:38.113Z,5.53
2022-11-19T12:33:14.478Z,5.15
2022-11-19T12:35:54.167Z,3.80
2022-11-19T12:38:27.104Z,6.32
2022-11-19T12:40:59.271Z,5.68
2022-11-19T12:43:44.282Z,3.90
2022-11-19T12:46:18.860Z,6.32
2022-11-19T12:48:52.514Z,7.68
2022-11-19T12:51:26.841Z,5.97
2022-11-19T12:54:07.133Z,6.57
2022-11-19T12:56:40.678Z,5.05
2022-11-19T12:59:17.825Z,8.93
2022-11-19T13:01:49.246Z,6.30
2022-11-19T13:04:19.783Z,8.05
2022-11-19T13:06:51.241Z,7.43
2022-11-19T13:09:21.169Z,9.07
2022-11-19T13:11:52.702Z,5.50
2022-11-19T13:14:25.938Z,8.43
2022-11-19T13:16:55.191Z,8.30
2022-11-19T13:19:24.405Z,8.95
2022-11-19T13:21:56.070Z,7.60
2022-11-19T13:24:30.049Z,7.50
2022-11-19T13:27:00.879Z,7.63
2022-11-19T13:29:36.014Z,6.15
2022-11-19T13:32:05.632Z,8.88
2022-11-19T13:34:36.871Z,8.73
2022-11-19T13:37:14.975Z,9.18
2022-11-19T13:39:44.622Z,12.48
2022-11-19T13:42:36.411Z,11.88
2022-11-19T13:45:04.379Z,10.75
2022-11-19T13:47:38.028Z,8.57
2022-11-19T13:50:07.814Z,10.48
2022-11-19T13:52:39.337Z,8.77
2022-11-19T13:55:22.782Z,11.40
2022-11-19T13:57:50.758Z,11.82
2022-11-19T14:00:22.899Z,10.73
2022-11-19T14:03:11.810Z,14.60
2022-11-19T14:05:57.391Z,11.20
2022-11-19T14:08:33.097Z,14.88
2022-11-19T14:11:08.322Z,14.05
2022-11-19T14:13:50.471Z,13.02
2022-11-19T14:16:40.259Z,11.15
2022-11-19T14:19:30.087Z,12.57
2022-11-19T14:22:17.152Z,14.25
2022-11-19T14:25:13.073Z,11.73
2022-11-19T14:27:41.046Z,12.27
2022-11-19T14:30:13.765Z,14.40
2022-11-19T14:32:46.895Z,14.15
2022-11-19T14:35:17.591Z,13.50
2022-11-19T14:37:46.846Z,14.48
2022-11-19T14:40:18.519Z,12.80
2022-11-19T14:43:22.955Z,12.85
2022-11-19T14:46:05.776Z,12.18
2022-11-19T14:48:34.975Z,12.88
2022-11-19T14:51:06.072Z,12.68
2022-11-19T14:53:34.447Z,13.15
2022-11-19T14:56:11.372Z,13.45
2022-11-19T14:58:39.281Z,13.00
2022-11-19T15:01:08.171Z,12.73
2022-11-19T15:03:37.723Z,15.50
2022-11-19T15:06:07.682Z,17.08
2022-11-19T15:08:47.798Z,16.23
2022-11-19T15:11:17.259Z,16.63
2022-11-19T15:13:45.733Z,18.35
2022-11-19T15:16:15.286Z,17.15
2022-11-19T15:19:10.031Z,14.10
2022-11-19T15:21:47.572Z,16.77
2022-11-19T15:24:22.644Z,19.65
2022-11-19T15:26:58.206Z,14.40
2022-11-19T15:29:31.749Z,18.33
2022-11-19T15:32:15.287Z,15.98
2022-11-19T15:37:44.190Z,17.15
2022-11-19T15:40:13.593Z,16.77
2022-11-19T15:42:46.127Z,18.33
2022-11-19T15:45:16.852Z,23.05
2022-11-19T15:47:46.779Z,18.10
2022-11-19T15:50:16.174Z,19.73
2022-11-19T15:52:43.863Z,20.67
2022-11-19T15:55:12.409Z,20.48
2022-11-19T15:57:45.263Z,18.33
2022-11-19T16:00:17.381Z,18.17
2022-11-19T16:02:46.754Z,17.35
2022-11-19T16:05:19.988Z,19.23
2022-11-19T16:07:48.801Z,19.38
2022-11-19T16:10:17.408Z,19.80
2022-11-19T16:13:21.521Z,18.10
2022-11-19T16:16:03.829Z,16.58
2022-11-19T16:18:31.784Z,17.08
2022-11-19T16:21:00.125Z,21.42
2022-11-19T16:23:28.760Z,18.48
2022-11-19T16:25:56.776Z,18.70
2022-11-19T16:28:27.099Z,20.05
2022-11-19T16:30:55.739Z,17.70
2022-11-19T16:33:24.360Z,16.45
2022-11-19T16:35:53.860Z,19.00
2022-11-19T16:38:27.671Z,21.10
2022-11-19T16:41:13.468Z,18.63
2022-11-19T16:43:44.854Z,14.75
2022-11-19T16:46:14.463Z,18.90
2022-11-19T16:48:59.949Z,16.80
2022-11-19T16:51:42.657Z,16.20
2022-11-19T16:54:11.188Z,19.30
2022-11-19T16:56:41.249Z,17.83
2022-11-19T16:59:17.564Z,7.45
2022-11-19T17:01:50.654Z,7.45
2022-11-19T17:04:19.675Z,5.15
2022-11-19T17:06:48.427Z,8.25
2022-11-19T17:09:30.372Z,5.68
2022-11-19T17:12:15.900Z,10.07
2022-11-19T17:14:49.552Z,10.30
2022-11-19T17:17:34.332Z,5.32
2022-11-19T17:20:05.355Z,31.05
2022-11-19T17:22:34.859Z,10.70
2022-11-19T17:25:03.134Z,5.70
2022-11-19T17:27:32.638Z,6.97
2022-11-19T17:30:03.365Z,7.68
2022-11-19T17:32:35.899Z,4.63
2022-11-19T17:35:03.661Z,4.22
2022-11-19T17:37:31.489Z,1.92
2022-11-19T17:39:59.387Z,7.55
2022-11-19T17:42:45.120Z,4.30
2022-11-19T17:45:14.409Z,8.50
2022-11-19T17:47:42.116Z,3.30
2022-11-19T17:50:10.254Z,5.38
2022-11-19T17:52:38.122Z,8.18
2022-11-19T17:55:13.051Z,3.75
2022-11-19T17:57:42.727Z,3.13
2022-11-19T18:00:11.596Z,5.20
2022-11-19T18:02:40.792Z,8.90
2022-11-19T18:05:14.257Z,3.75
2022-11-19T18:07:42.236Z,7.80
2022-11-19T18:10:10.389Z,4.18
2022-11-19T18:12:38.289Z,8.63
2022-11-19T18:15:06.774Z,5.47
2022-11-19T18:17:34.642Z,5.40
2022-11-19T18:20:05.396Z,3.97
2022-11-19T18:22:33.039Z,4.03
2022-11-19T18:25:00.849Z,2.97
2022-11-19T18:27:28.620Z,5.72
2022-11-19T18:29:56.410Z,4.03
2022-11-19T18:32:24.235Z,6.53
2022-11-19T18:34:52.921Z,3.88
2022-11-19T18:37:22.025Z,8.77
2022-11-19T18:39:49.773Z,5.68
2022-11-19T18:42:17.441Z,2.65
2022-11-19T18:44:44.087Z,1.08
2022-11-19T18:47:14.606Z,4.55
2022-11-19T18:49:42.313Z,3.50
2022-11-19T18:52:12.440Z,2.25
2022-11-19T18:54:41.520Z,1.85
2022-11-19T18:57:09.949Z,8.27
2022-11-19T18:59:37.586Z,2.35
2022-11-19T19:02:06.225Z,3.90
2022-11-19T19:04:33.903Z,1.00
2022-11-19T19:07:01.641Z,3.03
2022-11-19T19:09:29.377Z,4.38
2022-11-19T19:12:15.949Z,4.18
2022-11-19T19:14:44.184Z,1.38
2022-11-19T19:17:12.237Z,3.28
2022-11-19T19:19:39.883Z,5.53
2022-11-19T19:22:07.740Z,3.08
2022-11-19T19:24:35.683Z,9.07
2022-11-19T19:27:05.385Z,2.75
2022-11-19T19:29:33.308Z,2.80
2022-11-19T19:32:01.013Z,4.70
2022-11-19T19:34:29.694Z,3.50
2022-11-19T19:36:57.462Z,6.07
2022-11-19T19:39:25.318Z,5.90
2022-11-19T19:41:53.371Z,3.35
2022-11-19T19:44:22.320Z,2.10
2022-11-19T19:46:50.100Z,4.80
2022-11-19T19:49:17.750Z,2.03
2022-11-19T19:51:45.465Z,5.30
2022-11-19T19:54:13.088Z,1.98
2022-11-19T19:56:40.990Z,2.47
2022-11-19T19:59:08.684Z,8.27
2022-11-19T20:01:37.927Z,3.13
2022-11-19T20:04:06.487Z,1.92
2022-11-19T20:06:34.695Z,3.15
2022-11-19T20:09:07.924Z,2.20
2022-11-19T20:11:36.679Z,2.85
2022-11-19T20:14:05.111Z,1.65
2022-11-19T20:16:33.588Z,5.00
2022-11-19T20:19:03.368Z,2.50
2022-11-19T20:21:34.059Z,5.90
2022-11-19T20:24:04.868Z,2.15
2022-11-19T20:26:35.232Z,4.03
2022-11-19T20:29:03.862Z,3.33
2022-11-19T20:31:32.042Z,2.00
2022-11-19T20:34:00.828Z,4.93
2022-11-19T20:36:30.731Z,3.03
2022-11-19T20:38:58.935Z,3.05
2022-11-19T20:41:44.693Z,2.17
2022-11-19T20:44:23.282Z,2.63
2022-11-19T20:46:52.215Z,9.55
2022-11-19T20:49:20.827Z,2.22
2022-11-19T20:51:50.701Z,2.83
2022-11-19T20:54:18.564Z,6.70
2022-11-19T20:56:46.248Z,7.85
2022-11-19T20:59:14.005Z,1.20
2022-11-19T21:01:42.002Z,5.60
2022-11-19T21:04:09.821Z,6.20
2022-11-19T21:06:37.649Z,3.83
2022-11-19T21:09:07.184Z,3.60
2022-11-19T21:11:35.110Z,3.70
2022-11-19T21:14:03.182Z,3.20
2022-11-19T21:16:31.768Z,2.03
2022-11-19T21:18:59.938Z,2.83
2022-11-19T21:21:27.787Z,7.43
2022-11-19T21:23:55.724Z,4.95
2022-11-19T21:26:25.868Z,3.47
2022-11-19T21:28:54.618Z,1.67
2022-11-19T21:31:23.543Z,5.95
2022-11-19T21:33:51.320Z,1.70
2022-11-19T21:36:19.033Z,1.73
2022-11-19T21:38:46.736Z,2.40
2022-11-19T21:41:14.489Z,6.35
2022-11-19T21:43:43.605Z,3.05
2022-11-19T21:46:11.433Z,3.42
2022-11-19T21:48:39.648Z,2.72
2022-11-19T21:51:08.588Z,3.17
2022-11-19T21:53:37.037Z,2.40
2022-11-19T21:56:06.228Z,3.83
2022-11-19T21:58:34.108Z,3.20
2022-11-19T22:01:04.231Z,3.28
2022-11-19T22:03:33.275Z,3.60
2022-11-19T22:06:01.575Z,1.90
2022-11-19T22:08:29.892Z,2.35
2022-11-19T22:10:57.685Z,3.38
2022-11-19T22:13:25.743Z,3.65
2022-11-19T22:16:00.197Z,5.95
2022-11-19T22:18:29.574Z,2.67
2022-11-19T22:21:03.853Z,2.60
2022-11-19T22:23:31.664Z,4.45
2022-11-19T22:26:04.127Z,0.80
2022-11-19T22:28:31.960Z,2.30
2022-11-19T22:30:59.759Z,2.72
2022-11-19T22:33:31.777Z,2.22
2022-11-19T22:36:02.700Z,3.28
2022-11-19T22:38:33.002Z,1.48
2022-11-19T22:41:02.856Z,1.80
2022-11-19T22:43:31.257Z,3.75
2022-11-19T22:45:59.301Z,4.03
2022-11-19T22:48:28.851Z,6.28
2022-11-19T22:50:58.103Z,2.17
2022-11-19T22:53:26.428Z,2.97
2022-11-19T22:55:54.354Z,5.28
2022-11-19T22:58:22.266Z,3.78
2022-11-19T23:00:51.007Z,3.47
2022-11-19T23:03:19.056Z,1.92
2022-11-19T23:05:47.596Z,1.08
2022-11-19T23:08:16.996Z,1.38
2022-11-19T23:10:44.867Z,3.33
2022-11-19T23:13:30.078Z,2.20
2022-11-19T23:16:01.890Z,3.60
2022-11-19T23:18:30.082Z,1.45
2022-11-19T23:20:58.232Z,2.92
2022-11-19T23:23:27.485Z,1.75
2022-11-19T23:25:58.879Z,2.28
2022-11-19T23:28:26.840Z,4.20
2022-11-19T23:30:54.913Z,2.33
2022-11-19T23:33:23.430Z,1.23
2022-11-19T23:35:51.160Z,2.80
2022-11-19T23:38:19.052Z,2.17
2022-11-19T23:40:48.268Z,2.08
2022-11-19T23:43:16.179Z,1.75
2022-11-19T23:45:44.046Z,1.75
2022-11-19T23:48:11.862Z,1.65
2022-11-19T23:50:39.784Z,2.75
2022-11-19T23:53:07.694Z,2.85
2022-11-19T23:55:35.515Z,1.23
2022-11-19T23:58:04.744Z,4.22
